Shin Chun — VRFD2 — position and weather

sailwx.info

Track history (hours):
 
Tides and Currents Weather Stations Pressure Air Temp Water Temp Dewpoint Dewpoint Depression Visibility Wind Speed Wind Dir Waves Ship Positions

Shin Chun

Last reported at 2014-Oct-25 06:30 UTC. Time now 2014-Oct-30 18:58 UTC.
Position N 23°05' E 113°29'.

Length 152 m; draft 5.8 m.

Type: Cargo ship. MMSI: 477218300.

Date/timePositionNaut miles runAvg speedWind from/ knotsBaromVisibWave heightAir tempDewpointWater temp
2014-Oct-25 06:30N 23°05' E 113°29'0 0.1
2014-Oct-25 05:30N 23°05' E 113°29'0 0.0
2014-Oct-25 04:30N 23°05' E 113°29'0 0.0
2014-Oct-25 03:18N 23°05' E 113°29'0 0.1
2014-Oct-25 02:30N 23°05' E 113°29'0 0.0
2014-Oct-25 01:24N 23°05' E 113°29'0 0.1
2014-Oct-25 00:30N 23°05' E 113°29'0 0.0
2014-Oct-24 23:30N 23°05' E 113°29'0 0.0
2014-Oct-24 22:12N 23°05' E 113°29'0 0.0
2014-Oct-24 21:12N 23°05' E 113°29'0 0.1
2014-Oct-24 20:30N 23°05' E 113°29'0 0.0
2014-Oct-24 19:23N 23°05' E 113°29'0 0.1
2014-Oct-24 18:29N 23°05' E 113°29'0 0.0
2014-Oct-24 17:17N 23°05' E 113°29'0 0.0
2014-Oct-24 16:23N 23°05' E 113°29'0 0.1
2014-Oct-24 15:23N 23°05' E 113°29'0 0.1
2014-Oct-24 14:29N 23°05' E 113°29'0 0.0
2014-Oct-24 13:29N 23°05' E 113°29'0 0.0
2014-Oct-24 12:29N 23°05' E 113°29'0 0.0
2014-Oct-24 11:17N 23°05' E 113°29'0 0.0
2014-Oct-24 10:29N 23°05' E 113°29'0 0.0
2014-Oct-24 09:29N 23°05' E 113°29'0 0.1
2014-Oct-24 08:23N 23°05' E 113°29'0 0.1
2014-Oct-24 07:29N 23°05' E 113°29'0 0.1
2014-Oct-24 06:29N 23°05' E 113°29'0 0.1
2014-Oct-24 05:29N 23°05' E 113°29'0 0.0
2014-Oct-24 04:11N 23°05' E 113°29'0 0.0
2014-Oct-24 03:29N 23°05' E 113°29'0 0.0
2014-Oct-24 02:29N 23°05' E 113°29'0 0.0
2014-Oct-24 01:29N 23°05' E 113°29'0 0.0
2014-Oct-24 00:05N 23°05' E 113°29'0 0.0
2014-Oct-23 23:29N 23°05' E 113°29'0 0.0
2014-Oct-23 22:11N 23°05' E 113°29'0 0.0
2014-Oct-23 21:29N 23°05' E 113°29'0 0.0
2014-Oct-23 20:11N 23°05' E 113°29'0 0.1
2014-Oct-23 19:17N 23°05' E 113°29'0 0.1
2014-Oct-23 18:23N 23°05' E 113°29'0 0.0
2014-Oct-23 17:29N 23°05' E 113°29'0 0.0
2014-Oct-23 16:29N 23°05' E 113°29'0 0.1
2014-Oct-23 15:23N 23°05' E 113°29'0 0.0
2014-Oct-23 14:29N 23°05' E 113°29'0 0.0
2014-Oct-23 13:29N 23°05' E 113°29'0 0.0
2014-Oct-23 12:29N 23°05' E 113°29'0 0.1
2014-Oct-23 11:23N 23°05' E 113°29'0 0.1
2014-Oct-23 10:29N 23°05' E 113°29'0 0.0
2014-Oct-23 09:29N 23°05' E 113°29'0 0.1
2014-Oct-23 08:23N 23°05' E 113°29'0 0.0
2014-Oct-23 07:17N 23°05' E 113°29'0 0.0
2014-Oct-23 06:22N 23°05' E 113°29'0 0.0
2014-Oct-23 05:29N 23°05' E 113°29'0 0.0
2014-Oct-23 04:28N 23°05' E 113°29'0 0.0
2014-Oct-23 03:28N 23°05' E 113°29'0 0.0
2014-Oct-23 02:28N 23°05' E 113°29'0 0.0
2014-Oct-23 01:16N 23°05' E 113°29'0 0.0
2014-Oct-23 00:22N 23°05' E 113°29'0 0.0
2014-Oct-22 23:28N 23°05' E 113°29'0 0.1
2014-Oct-22 22:28N 23°05' E 113°29'0 0.0
2014-Oct-22 21:28N 23°05' E 113°29'0 0.0
2014-Oct-22 20:22N 23°05' E 113°29'0 0.1
2014-Oct-22 19:28N 23°05' E 113°29'0 0.0
2014-Oct-22 18:28N 23°05' E 113°29'0 0.0
2014-Oct-22 17:28N 23°05' E 113°29'0 0.0
2014-Oct-22 16:28N 23°05' E 113°29'0 0.0
2014-Oct-22 15:28N 23°05' E 113°29'0 0.1
2014-Oct-22 14:28N 23°05' E 113°29'0 0.0
2014-Oct-22 13:22N 23°05' E 113°29'0 0.0
2014-Oct-22 12:04N 23°05' E 113°29'0 0.1
2014-Oct-22 11:22N 23°05' E 113°29'1 1.4
2014-Oct-22 10:32N 23°04' E 113°29'8 8.3
2014-Oct-22 09:32N 22°56' E 113°33'1010.0
2014-Oct-22 08:33N 22°47' E 113°37'1110.9
2014-Oct-22 07:33N 22°38' E 113°42'1212.5
2014-Oct-22 06:33N 22°25' E 113°46'1110.7
2014-Oct-22 05:33N 22°15' E 113°48'10 9.4
2014-Oct-22 04:33N 22°06' E 113°49'4 4.1
2014-Oct-22 03:32N 22°05' E 113°54'0 0.0
2014-Oct-22 00:32N 22°05' E 113°54'0 0.0
2014-Oct-21 23:32N 22°05' E 113°54'0 0.0
2014-Oct-21 22:32N 22°05' E 113°54'0 0.1
2014-Oct-21 21:32N 22°05' E 113°54'0 0.0
2014-Oct-21 20:14N 22°05' E 113°54'0 0.1
2014-Oct-21 19:32N 22°05' E 113°54'0 0.0
2014-Oct-21 17:32N 22°05' E 113°54'0 0.0
2014-Oct-21 16:32N 22°05' E 113°54'0 0.0
2014-Oct-21 15:32N 22°05' E 113°54'1 0.6
2014-Oct-21 14:33N 22°05' E 113°54'1312.3
2014-Oct-21 13:31N 22°08' E 114°08'16114.6
2014-Oct-21 02:33N 22°20' E 117°01'1414.4
2014-Oct-21 01:33N 22°21' E 117°16'1414.2
2014-Oct-21 00:33N 22°20' E 117°32'1614.3
2014-Oct-20 23:27N 22°19' E 117°48'1414.6
2014-Oct-20 22:28N 22°21' E 118°04'1414.6
2014-Oct-20 21:29N 22°23' E 118°19'1414.5
2014-Oct-20 20:32N 22°25' E 118°34'1414.3
2014-Oct-20 19:33N 22°27' E 118°49'1414.1
2014-Oct-20 18:33N 22°29' E 119°04'1414.1
2014-Oct-20 17:32N 22°31' E 119°19'1413.7
2014-Oct-20 16:31N 22°33' E 119°35'1414.2
2014-Oct-20 15:33N 22°35' E 119°49'1414.3
2014-Oct-20 14:33N 22°37' E 120°05'1211.8
2014-Oct-20 13:33N 22°36' E 120°17'1 0.4
2014-Oct-20 10:13N 22°35' E 120°18'0 0.0
2014-Oct-20 09:25N 22°35' E 120°18'0 0.1
2014-Oct-20 07:33N 22°35' E 120°18'10 9.8
2014-Oct-20 06:34N 22°39' E 120°09'1414.0
2014-Oct-20 05:33N 22°47' E 119°56'1414.0
2014-Oct-20 04:33N 22°55' E 119°43'1413.8
2014-Oct-20 03:33N 23°03' E 119°31'1514.6
2014-Oct-20 02:33N 23°13' E 119°20'1413.9
2014-Oct-20 01:33N 23°24' E 119°10'1312.9
2014-Oct-20 00:33N 23°33' E 119°01'3912.9
2014-Oct-19 21:31N 24°01' E 118°31'1313.1
2014-Oct-19 20:33N 24°10' E 118°21'1413.5
2014-Oct-19 19:33N 24°20' E 118°11'1111.2
2014-Oct-19 18:33N 24°29' E 118°04'2 2.1
2014-Oct-19 17:33N 24°31' E 118°05'0 0.0
2014-Oct-19 16:27N 24°31' E 118°05'0 0.0
2014-Oct-19 15:30N 24°31' E 118°05'0 0.1
2014-Oct-19 14:33N 24°31' E 118°05'0 0.0
2014-Oct-19 13:24N 24°31' E 118°05'0 0.0
2014-Oct-19 12:21N 24°31' E 118°05'0 0.0
2014-Oct-19 11:33N 24°31' E 118°05'0 0.0
2014-Oct-19 10:27N 24°31' E 118°05'0 0.1
2014-Oct-19 09:33N 24°31' E 118°05'0 0.0
2014-Oct-19 08:33N 24°31' E 118°05'0 0.0
2014-Oct-19 07:27N 24°31' E 118°05'3 2.9
2014-Oct-19 06:33N 24°29' E 118°04'1010.1
2014-Oct-19 05:33N 24°20' E 118°10'1313.1
2014-Oct-19 04:34N 24°11' E 118°20'1514.8
2014-Oct-19 03:34N 24°00' E 118°31'4914.5
2014-Oct-19 00:13N 23°26' E 119°08'1015.1
2014-Oct-18 23:31N 23°18' E 119°16'4715.5
2014-Oct-18 20:28N 22°48' E 119°56'1416.0
2014-Oct-18 19:33N 22°40' E 120°09'10 9.9
2014-Oct-18 18:33N 22°35' E 120°18'0 0.0
2014-Oct-18 13:23N 22°35' E 120°18'0 0.0
2014-Oct-18 12:20N 22°35' E 120°18'0 0.0
2014-Oct-18 10:29N 22°35' E 120°18'0 0.0
2014-Oct-18 09:29N 22°35' E 120°18'0 0.0
2014-Oct-18 08:17N 22°35' E 120°18'0 0.0
2014-Oct-18 07:29N 22°35' E 120°18'0 0.0
2014-Oct-18 06:29N 22°35' E 120°18'0 0.0
2014-Oct-18 04:26N 22°35' E 120°18'0 0.0
2014-Oct-18 03:32N 22°35' E 120°18'3 3.3
2014-Oct-18 02:33N 22°37' E 120°16'1111.4
2014-Oct-18 01:33N 22°44' E 120°06'1312.6
2014-Oct-18 00:33N 22°55' E 119°58'19112.6
2014-Oct-17 09:23N 26°05' E 119°45'9 9.1
2014-Oct-17 08:22N 26°08' E 119°35'8 9.7
2014-Oct-17 07:33N 26°02' E 119°30'2 1.5
2014-Oct-17 06:24N 26°00' E 119°29'0 0.0
2014-Oct-17 05:30N 26°00' E 119°29'0 0.0
2014-Oct-17 04:30N 26°00' E 119°29'0 0.0
2014-Oct-17 03:30N 26°00' E 119°29'0 0.0
2014-Oct-17 02:30N 26°00' E 119°29'0 0.0
2014-Oct-17 01:30N 26°00' E 119°29'0 0.0
2014-Oct-17 00:30N 26°00' E 119°29'0 0.0
2014-Oct-16 23:30N 26°00' E 119°29'0 0.0
2014-Oct-16 22:30N 26°00' E 119°29'0 0.0
2014-Oct-16 21:18N 26°00' E 119°29'0 0.0
2014-Oct-16 20:24N 26°00' E 119°29'0 0.0
2014-Oct-16 19:30N 26°00' E 119°29'0 0.0
2014-Oct-16 18:30N 26°00' E 119°29'0 0.0
2014-Oct-16 17:30N 26°00' E 119°29'0 0.0
2014-Oct-16 16:30N 26°00' E 119°29'0 0.0
2014-Oct-16 15:30N 26°00' E 119°29'0 0.0
2014-Oct-16 14:30N 26°00' E 119°29'0 0.0
2014-Oct-16 13:29N 26°00' E 119°29'0 0.0
2014-Oct-16 12:29N 26°00' E 119°29'0 0.0
2014-Oct-16 11:29N 26°00' E 119°29'0 0.0
2014-Oct-16 10:29N 26°00' E 119°29'0 0.0
2014-Oct-16 09:23N 26°00' E 119°29'2 2.9
2014-Oct-16 08:33N 26°02' E 119°30'11 7.5
2014-Oct-16 07:08N 26°06' E 119°42'5 9.1
2014-Oct-16 06:32N 26°05' E 119°48'48 6.9
2014-Oct-15 23:30N 25°19' E 119°32'1511.3
2014-Oct-15 22:11N 25°25' E 119°17'  
Track history (hours):
 
Tides and Currents Weather Stations Pressure Air Temp Water Temp Dewpoint Dewpoint Depression Visibility Wind Speed Wind Dir Waves Ship Positions

Shin Chun

Last reported at 2014-Oct-25 06:30 UTC. Time now 2014-Oct-30 18:58 UTC.
Position N 23°05' E 113°29'.

Length 152 m; draft 5.8 m.

Type: Cargo ship. MMSI: 477218300.

Date/timePositionNaut miles runAvg speedWind from/ knotsBaromVisibWave heightAir tempDewpointWater temp
2014-Oct-25 06:30N 23°05' E 113°29'0 0.1
2014-Oct-25 05:30N 23°05' E 113°29'0 0.0
2014-Oct-25 04:30N 23°05' E 113°29'0 0.0
2014-Oct-25 03:18N 23°05' E 113°29'0 0.1
2014-Oct-25 02:30N 23°05' E 113°29'0 0.0
2014-Oct-25 01:24N 23°05' E 113°29'0 0.1
2014-Oct-25 00:30N 23°05' E 113°29'0 0.0
2014-Oct-24 23:30N 23°05' E 113°29'0 0.0
2014-Oct-24 22:12N 23°05' E 113°29'0 0.0
2014-Oct-24 21:12N 23°05' E 113°29'0 0.1
2014-Oct-24 20:30N 23°05' E 113°29'0 0.0
2014-Oct-24 19:23N 23°05' E 113°29'0 0.1
2014-Oct-24 18:29N 23°05' E 113°29'0 0.0
2014-Oct-24 17:17N 23°05' E 113°29'0 0.0
2014-Oct-24 16:23N 23°05' E 113°29'0 0.1
2014-Oct-24 15:23N 23°05' E 113°29'0 0.1
2014-Oct-24 14:29N 23°05' E 113°29'0 0.0
2014-Oct-24 13:29N 23°05' E 113°29'0 0.0
2014-Oct-24 12:29N 23°05' E 113°29'0 0.0
2014-Oct-24 11:17N 23°05' E 113°29'0 0.0
2014-Oct-24 10:29N 23°05' E 113°29'0 0.0
2014-Oct-24 09:29N 23°05' E 113°29'0 0.1
2014-Oct-24 08:23N 23°05' E 113°29'0 0.1
2014-Oct-24 07:29N 23°05' E 113°29'0 0.1
2014-Oct-24 06:29N 23°05' E 113°29'0 0.1
2014-Oct-24 05:29N 23°05' E 113°29'0 0.0
2014-Oct-24 04:11N 23°05' E 113°29'0 0.0
2014-Oct-24 03:29N 23°05' E 113°29'0 0.0
2014-Oct-24 02:29N 23°05' E 113°29'0 0.0
2014-Oct-24 01:29N 23°05' E 113°29'0 0.0
2014-Oct-24 00:05N 23°05' E 113°29'0 0.0
2014-Oct-23 23:29N 23°05' E 113°29'0 0.0
2014-Oct-23 22:11N 23°05' E 113°29'0 0.0
2014-Oct-23 21:29N 23°05' E 113°29'0 0.0
2014-Oct-23 20:11N 23°05' E 113°29'0 0.1
2014-Oct-23 19:17N 23°05' E 113°29'0 0.1
2014-Oct-23 18:23N 23°05' E 113°29'0 0.0
2014-Oct-23 17:29N 23°05' E 113°29'0 0.0
2014-Oct-23 16:29N 23°05' E 113°29'0 0.1
2014-Oct-23 15:23N 23°05' E 113°29'0 0.0
2014-Oct-23 14:29N 23°05' E 113°29'0 0.0
2014-Oct-23 13:29N 23°05' E 113°29'0 0.0
2014-Oct-23 12:29N 23°05' E 113°29'0 0.1
2014-Oct-23 11:23N 23°05' E 113°29'0 0.1
2014-Oct-23 10:29N 23°05' E 113°29'0 0.0
2014-Oct-23 09:29N 23°05' E 113°29'0 0.1
2014-Oct-23 08:23N 23°05' E 113°29'0 0.0
2014-Oct-23 07:17N 23°05' E 113°29'0 0.0
2014-Oct-23 06:22N 23°05' E 113°29'0 0.0
2014-Oct-23 05:29N 23°05' E 113°29'0 0.0
2014-Oct-23 04:28N 23°05' E 113°29'0 0.0
2014-Oct-23 03:28N 23°05' E 113°29'0 0.0
2014-Oct-23 02:28N 23°05' E 113°29'0 0.0
2014-Oct-23 01:16N 23°05' E 113°29'0 0.0
2014-Oct-23 00:22N 23°05' E 113°29'0 0.0
2014-Oct-22 23:28N 23°05' E 113°29'0 0.1
2014-Oct-22 22:28N 23°05' E 113°29'0 0.0
2014-Oct-22 21:28N 23°05' E 113°29'0 0.0
2014-Oct-22 20:22N 23°05' E 113°29'0 0.1
2014-Oct-22 19:28N 23°05' E 113°29'0 0.0
2014-Oct-22 18:28N 23°05' E 113°29'0 0.0
2014-Oct-22 17:28N 23°05' E 113°29'0 0.0
2014-Oct-22 16:28N 23°05' E 113°29'0 0.0
2014-Oct-22 15:28N 23°05' E 113°29'0 0.1
2014-Oct-22 14:28N 23°05' E 113°29'0 0.0
2014-Oct-22 13:22N 23°05' E 113°29'0 0.0
2014-Oct-22 12:04N 23°05' E 113°29'0 0.1
2014-Oct-22 11:22N 23°05' E 113°29'1 1.4
2014-Oct-22 10:32N 23°04' E 113°29'8 8.3
2014-Oct-22 09:32N 22°56' E 113°33'1010.0
2014-Oct-22 08:33N 22°47' E 113°37'1110.9
2014-Oct-22 07:33N 22°38' E 113°42'1212.5
2014-Oct-22 06:33N 22°25' E 113°46'1110.7
2014-Oct-22 05:33N 22°15' E 113°48'10 9.4
2014-Oct-22 04:33N 22°06' E 113°49'4 4.1
2014-Oct-22 03:32N 22°05' E 113°54'0 0.0
2014-Oct-22 00:32N 22°05' E 113°54'0 0.0
2014-Oct-21 23:32N 22°05' E 113°54'0 0.0
2014-Oct-21 22:32N 22°05' E 113°54'0 0.1
2014-Oct-21 21:32N 22°05' E 113°54'0 0.0
2014-Oct-21 20:14N 22°05' E 113°54'0 0.1
2014-Oct-21 19:32N 22°05' E 113°54'0 0.0
2014-Oct-21 17:32N 22°05' E 113°54'0 0.0
2014-Oct-21 16:32N 22°05' E 113°54'0 0.0
2014-Oct-21 15:32N 22°05' E 113°54'1 0.6
2014-Oct-21 14:33N 22°05' E 113°54'1312.3
2014-Oct-21 13:31N 22°08' E 114°08'16114.6
2014-Oct-21 02:33N 22°20' E 117°01'1414.4
2014-Oct-21 01:33N 22°21' E 117°16'1414.2
2014-Oct-21 00:33N 22°20' E 117°32'1614.3
2014-Oct-20 23:27N 22°19' E 117°48'1414.6
2014-Oct-20 22:28N 22°21' E 118°04'1414.6
2014-Oct-20 21:29N 22°23' E 118°19'1414.5
2014-Oct-20 20:32N 22°25' E 118°34'1414.3
2014-Oct-20 19:33N 22°27' E 118°49'1414.1
2014-Oct-20 18:33N 22°29' E 119°04'1414.1
2014-Oct-20 17:32N 22°31' E 119°19'1413.7
2014-Oct-20 16:31N 22°33' E 119°35'1414.2
2014-Oct-20 15:33N 22°35' E 119°49'1414.3
2014-Oct-20 14:33N 22°37' E 120°05'1211.8
2014-Oct-20 13:33N 22°36' E 120°17'1 0.4
2014-Oct-20 10:13N 22°35' E 120°18'0 0.0
2014-Oct-20 09:25N 22°35' E 120°18'0 0.1
2014-Oct-20 07:33N 22°35' E 120°18'10 9.8
2014-Oct-20 06:34N 22°39' E 120°09'1414.0
2014-Oct-20 05:33N 22°47' E 119°56'1414.0
2014-Oct-20 04:33N 22°55' E 119°43'1413.8
2014-Oct-20 03:33N 23°03' E 119°31'1514.6
2014-Oct-20 02:33N 23°13' E 119°20'1413.9
2014-Oct-20 01:33N 23°24' E 119°10'1312.9
2014-Oct-20 00:33N 23°33' E 119°01'3912.9
2014-Oct-19 21:31N 24°01' E 118°31'1313.1
2014-Oct-19 20:33N 24°10' E 118°21'1413.5
2014-Oct-19 19:33N 24°20' E 118°11'1111.2
2014-Oct-19 18:33N 24°29' E 118°04'2 2.1
2014-Oct-19 17:33N 24°31' E 118°05'0 0.0
2014-Oct-19 16:27N 24°31' E 118°05'0 0.0
2014-Oct-19 15:30N 24°31' E 118°05'0 0.1
2014-Oct-19 14:33N 24°31' E 118°05'0 0.0
2014-Oct-19 13:24N 24°31' E 118°05'0 0.0
2014-Oct-19 12:21N 24°31' E 118°05'0 0.0
2014-Oct-19 11:33N 24°31' E 118°05'0 0.0
2014-Oct-19 10:27N 24°31' E 118°05'0 0.1
2014-Oct-19 09:33N 24°31' E 118°05'0 0.0
2014-Oct-19 08:33N 24°31' E 118°05'0 0.0
2014-Oct-19 07:27N 24°31' E 118°05'3 2.9
2014-Oct-19 06:33N 24°29' E 118°04'1010.1
2014-Oct-19 05:33N 24°20' E 118°10'1313.1
2014-Oct-19 04:34N 24°11' E 118°20'1514.8
2014-Oct-19 03:34N 24°00' E 118°31'4914.5
2014-Oct-19 00:13N 23°26' E 119°08'1015.1
2014-Oct-18 23:31N 23°18' E 119°16'4715.5
2014-Oct-18 20:28N 22°48' E 119°56'1416.0
2014-Oct-18 19:33N 22°40' E 120°09'10 9.9
2014-Oct-18 18:33N 22°35' E 120°18'0 0.0
2014-Oct-18 13:23N 22°35' E 120°18'0 0.0
2014-Oct-18 12:20N 22°35' E 120°18'0 0.0
2014-Oct-18 10:29N 22°35' E 120°18'0 0.0
2014-Oct-18 09:29N 22°35' E 120°18'0 0.0
2014-Oct-18 08:17N 22°35' E 120°18'0 0.0
2014-Oct-18 07:29N 22°35' E 120°18'0 0.0
2014-Oct-18 06:29N 22°35' E 120°18'0 0.0
2014-Oct-18 04:26N 22°35' E 120°18'0 0.0
2014-Oct-18 03:32N 22°35' E 120°18'3 3.3
2014-Oct-18 02:33N 22°37' E 120°16'1111.4
2014-Oct-18 01:33N 22°44' E 120°06'1312.6
2014-Oct-18 00:33N 22°55' E 119°58'19112.6
2014-Oct-17 09:23N 26°05' E 119°45'9 9.1
2014-Oct-17 08:22N 26°08' E 119°35'8 9.7
2014-Oct-17 07:33N 26°02' E 119°30'2 1.5
2014-Oct-17 06:24N 26°00' E 119°29'0 0.0
2014-Oct-17 05:30N 26°00' E 119°29'0 0.0
2014-Oct-17 04:30N 26°00' E 119°29'0 0.0
2014-Oct-17 03:30N 26°00' E 119°29'0 0.0
2014-Oct-17 02:30N 26°00' E 119°29'0 0.0
2014-Oct-17 01:30N 26°00' E 119°29'0 0.0
2014-Oct-17 00:30N 26°00' E 119°29'0 0.0
2014-Oct-16 23:30N 26°00' E 119°29'0 0.0
2014-Oct-16 22:30N 26°00' E 119°29'0 0.0
2014-Oct-16 21:18N 26°00' E 119°29'0 0.0
2014-Oct-16 20:24N 26°00' E 119°29'0 0.0
2014-Oct-16 19:30N 26°00' E 119°29'0 0.0
2014-Oct-16 18:30N 26°00' E 119°29'0 0.0
2014-Oct-16 17:30N 26°00' E 119°29'0 0.0
2014-Oct-16 16:30N 26°00' E 119°29'0 0.0
2014-Oct-16 15:30N 26°00' E 119°29'0 0.0
2014-Oct-16 14:30N 26°00' E 119°29'0 0.0
2014-Oct-16 13:29N 26°00' E 119°29'0 0.0
2014-Oct-16 12:29N 26°00' E 119°29'0 0.0
2014-Oct-16 11:29N 26°00' E 119°29'0 0.0
2014-Oct-16 10:29N 26°00' E 119°29'0 0.0
2014-Oct-16 09:23N 26°00' E 119°29'2 2.9
2014-Oct-16 08:33N 26°02' E 119°30'11 7.5
2014-Oct-16 07:08N 26°06' E 119°42'5 9.1
2014-Oct-16 06:32N 26°05' E 119°48'48 6.9
2014-Oct-15 23:30N 25°19' E 119°32'1511.3
2014-Oct-15 22:11N 25°25' E 119°17'  

Dump ship's entire track history